Home > Products > Valid Products > TAF

000
FTUS43 KAPX 270500
TAFPLN
TAF
KPLN 270520Z 2706/2806 27003KT P6SM SCT025 OVC150
     FM270900 28003KT P6SM -RA FEW040 OVC100
     FM271400 30008KT P6SM FEW050
     FM271800 31008G15KT P6SM SKC
     FM280100 00000KT P6SM SKC=



000
FTUS43 KAPX 270500
TAFAPN
TAF
KAPN 270520Z 2706/2806 30003KT P6SM SCT020 BKN150
     FM271100 27004KT P6SM -RA FEW050 OVC100
     FM271700 30008G15KT P6SM FEW060
     FM280100 00000KT P6SM SKC=



000
FTUS43 KAPX 270500
TAFTVC
TAF
KTVC 270520Z 2706/2806 00000KT P6SM OVC150
     FM270900 VRB02KT P6SM SCT120 OVC150
     FM271700 32007KT P6SM FEW060
     FM280100 00000KT P6SM SCT250=



000
FTUS43 KAPX 270400 AAB
TAFPLN
TAF AMD
KPLN 270437Z 2705/2724 32007KT P6SM SCT025 SCT250
     FM270800 30005KT P6SM SCT050 BKN100
     FM271400 31011G20KT P6SM FEW060 SCT120=



000
FTUS43 KAPX 270300 AAA
TAFPLN
TAF AMD
KPLN 270321Z 2703/2724 32007KT P6SM SCT025 SCT250
      TEMPO 2703/2706 BKN025
     FM270800 30005KT P6SM SCT050 BKN100
     FM271400 31011G20KT P6SM FEW060 SCT120=



000
FTUS43 KAPX 262300
TAFTVC
TAF
KTVC 262320Z 2700/2724 02005KT P6SM SCT250
     FM270900 VRB03KT P6SM SCT050 BKN100
     FM271500 36010KT P6SM FEW060 SCT120=



000
FTUS43 KAPX 262300
TAFAPN
TAF
KAPN 262320Z 2700/2724 35007KT P6SM SCT250
     FM271000 30005KT P6SM SCT050 BKN100
     FM271600 33011G20KT P6SM FEW060 SCT120=



000
FTUS43 KAPX 262300
TAFPLN
TAF
KPLN 262320Z 2700/2724 32007KT P6SM SCT250
     FM270800 30005KT P6SM SCT050 BKN100
     FM271400 31011G20KT P6SM FEW060 SCT120=



000
FTUS43 KAPX 262000 AAB
TAFTVC
TAF AMD
KTVC 262012Z 2620/2718 03008KT P6SM FEW030 BKN250
     FM270000 33003KT P6SM FEW250
     FM270900 00000KT P6SM BKN120
     FM271330 35007KT P6SM FEW050 SCT120=



000
FTUS43 KAPX 262000 AAA
TAFPLN
TAF AMD
KPLN 262011Z 2620/2718 30008G18KT P6SM SCT250
     FM270000 33004KT P6SM SCT250
     FM270900 00000KT P6SM BKN120
     FM271330 31008KT P6SM FEW050 SCT120=



000
FTUS43 KAPX 262000 AAB
TAFAPN
TAF AMD
KAPN 262010Z 2620/2718 36009G16KT P6SM BKN250
     FM270000 33004KT P6SM SCT250
     FM271000 30003KT P6SM BKN120
     FM271400 31007KT P6SM FEW050 SCT120=



000
FTUS43 KAPX 261900 AAA
TAFAPN
TAF AMD
KAPN 261906Z 2619/2718 30008KT P6SM SCT025 BKN035
     FM262000 31009G16KT P6SM SCT035 BKN250
     FM270000 33004KT P6SM SCT250
     FM271000 30003KT P6SM BKN120
     FM271400 31007KT P6SM FEW050 SCT120=



000
FTUS43 KAPX 261900 AAA
TAFTVC
TAF AMD
KTVC 261904Z 2619/2718 03008KT P6SM FEW030 BKN250
     FM270000 33003KT P6SM FEW250
     FM270900 00000KT P6SM BKN120
     FM271330 35007KT P6SM FEW050 SCT120=



000
FTUS43 KAPX 261700
TAFAPN
TAF
KAPN 261726Z 2618/2718 30008KT P6SM BKN025
     FM261930 31009G16KT P6SM SCT030
     FM270000 33004KT P6SM SCT250
     FM271000 30003KT P6SM BKN120
     FM271400 31007KT P6SM FEW050 SCT120=



000
FTUS43 KAPX 261700
TAFPLN
TAF
KPLN 261726Z 2618/2718 31009G16KT P6SM BKN035
     FM261930 30009G16KT P6SM SCT035
     FM270000 33004KT P6SM SCT250
     FM270900 00000KT P6SM BKN120
     FM271330 31008KT P6SM FEW050 SCT120=



000
FTUS43 KAPX 261700
TAFTVC
TAF
KTVC 261726Z 2618/2718 03008KT P6SM SCT028 BKN250
     FM261900 34008G15KT P6SM SCT028 BKN250
     FM270000 33003KT P6SM FEW250
     FM270900 00000KT P6SM BKN120
     FM271330 35007KT P6SM FEW050 SCT120=



000
FTUS43 KAPX 261600 AAF
TAFAPN
TAF AMD
KAPN 261632Z 2617/2712 VRB03KT P6SM OVC015
     FM261715 28009KT P6SM BKN028
     FM261800 31009G16KT P6SM SCT040
     FM270000 34004KT P6SM SCT250
     FM271000 29003KT P6SM BKN120=



000
FTUS43 KAPX 261500 AAD
TAFTVC
TAF AMD
KTVC 261540Z 2616/2712 36005KT P6SM SCT025 BKN120
     FM261800 31008G15KT P6SM SCT040
     FM270000 33003KT P6SM SKC
     FM270900 00000KT P6SM BKN120=



000
FTUS43 KAPX 261500 AAE
TAFAPN
TAF AMD
KAPN 261538Z 2616/2712 VRB03KT P6SM OVC008
     FM261615 28009KT P6SM BKN028
     FM261800 31009G16KT P6SM SCT040
     FM270000 34004KT P6SM SCT250
     FM271000 29003KT P6SM BKN120=



000
FTUS43 KAPX 261400 AAD
TAFAPN
TAF AMD
KAPN 261431Z 2615/2712 VRB03KT 5SM BR OVC005
     FM261530 28009KT P6SM BKN035
     FM261800 31009G16KT P6SM SCT040
     FM270000 34004KT P6SM SCT250
     FM271000 29003KT P6SM BKN120=



000
FTUS43 KAPX 261300 AAC
TAFTVC
TAF AMD
KTVC 261344Z 2614/2712 29007KT P6SM OVC010
      TEMPO 2614/2615 3SM BR OVC008
     FM261600 29007KT P6SM SCT035
     FM261800 31008G15KT P6SM SCT040
     FM270000 33003KT P6SM SKC
     FM270900 00000KT P6SM BKN120=



000
FTUS43 KAPX 261300 AAC
TAFAPN
TAF AMD
KAPN 261334Z 2614/2712 22004KT 5SM BR OVC005
     FM261430 28009KT P6SM BKN035
     FM261800 31009G16KT P6SM SCT040
     FM270000 34004KT P6SM SCT250
     FM271000 29003KT P6SM BKN120=



000
FTUS43 KAPX 261200 AAB
TAFTVC
TAF AMD
KTVC 261257Z 2613/2712 24004KT P6SM OVC014
     FM261400 29007KT P6SM SCT035
     FM261800 31008G15KT P6SM SCT040
     FM270000 33003KT P6SM SKC
     FM270900 00000KT P6SM BKN120=



000
FTUS43 KAPX 261200 AAA
TAFPLN
TAF AMD
KPLN 261257Z 2613/2712 25004KT P6SM BKN028
     FM261400 31009KT P6SM BKN035
     FM261700 30009G16KT P6SM SCT040
     FM270000 34004KT P6SM SCT250
     FM270900 00000KT P6SM BKN120=



000
FTUS43 KAPX 261200 AAB
TAFAPN
TAF AMD
KAPN 261256Z 2613/2712 22004KT 1 1/2SM BR OVC010
     FM261430 28009KT P6SM BKN035
     FM261800 31009G16KT P6SM SCT040
     FM270000 34004KT P6SM SCT250
     FM271000 29003KT P6SM BKN120=



000
FTUS43 KAPX 261200 AAA
TAFAPN
TAF AMD
KAPN 261212Z 2612/2712 22004KT P6SM OVC020
      TEMPO 2612/2613 2SM BR OVC010
     FM261500 28009KT P6SM BKN035
     FM261800 31009G16KT P6SM SCT040
     FM270000 34004KT P6SM SCT250
     FM271000 29003KT P6SM BKN120=



000
FTUS43 KAPX 261100 AAA
TAFTVC
TAF AMD
KTVC 261137Z 2612/2712 24003KT P6SM OVC017
      TEMPO 2612/2613 BKN025
     FM261300 24004KT P6SM BKN025
     FM261400 29007KT P6SM SCT035
     FM261800 31008G15KT P6SM SCT040
     FM270000 33003KT P6SM SKC
     FM270900 00000KT P6SM BKN120=



000
FTUS43 KAPX 261100
TAFTVC
TAF
KTVC 261120Z 2612/2712 24004KT P6SM BKN025
     FM261400 29007KT P6SM SCT035
     FM261800 31008G15KT P6SM SCT040
     FM270000 33003KT P6SM SKC
     FM270900 00000KT P6SM BKN120=



000
FTUS43 KAPX 261100
TAFPLN
TAF
KPLN 261120Z 2612/2712 25004KT P6SM OVC025
     FM261400 31009KT P6SM BKN035
     FM261700 30009G16KT P6SM SCT040
     FM270000 34004KT P6SM SCT250
     FM270900 00000KT P6SM BKN120=



000
FTUS43 KAPX 261100
TAFAPN
TAF
KAPN 261120Z 2612/2712 22004KT P6SM OVC020
     FM261500 28009KT P6SM BKN035
     FM261800 31009G16KT P6SM SCT040
     FM270000 34004KT P6SM SCT250
     FM271000 29003KT P6SM BKN120=



000
FTUS43 KAPX 260900 AAC
TAFAPN
TAF AMD
KAPN 260952Z 2610/2706 18004KT 6SM BR FEW012 SCT120
      TEMPO 2610/2611 2SM BR
     FM261100 22004KT P6SM BKN020
     FM261500 28009KT P6SM BKN035
     FM261800 31009G16KT P6SM SCT040
     FM270000 34004KT P6SM SCT250=



000
FTUS43 KAPX 260700 AAA
TAFTVC
TAF AMD
KTVC 260757Z 2608/2706 20004KT P6SM SCT120
     FM260900 24004KT P6SM SCT025 BKN120
      TEMPO 2610/2612 BKN025
     FM261400 29007KT P6SM SCT035
     FM261800 31008G15KT P6SM SCT040
     FM270000 33003KT P6SM SKC=



000
FTUS43 KAPX 260700 CCA
TAFPLN
TAF COR
KPLN 260757Z 2608/2706 24007KT P6SM SCT012
     FM260830 25004KT P6SM OVC012
     FM261400 31009KT P6SM BKN035
     FM261700 30009G16KT P6SM SCT040
     FM270000 34004KT P6SM SCT250=



000
FTUS43 KAPX 260700 AAB
TAFAPN
TAF AMD
KAPN 260756Z 2608/2706 18004KT 3SM BR FEW012 SCT120
      TEMPO 2608/2611 1/4SM FG VV001
     FM261100 22004KT 3SM BR BKN025
     FM261500 28009KT P6SM BKN035
     FM261800 31009G16KT P6SM SCT040
     FM270000 34004KT P6SM SCT250=



000
FTUS43 KAPX 260700 AAA
TAFPLN
TAF AMD
KPLN 260756Z 2608/2706 24007KT P6SM SCT012
     FM260900 25004KT P6SM OVC012
     FM261400 31009KT P6SM BKN035
     FM261700 30009G16KT P6SM SCT040
     FM270000 34004KT P6SM SCT250=



000
FTUS43 KAPX 260700 AAA
TAFAPN
TAF AMD
KAPN 260712Z 2607/2706 18004KT P6SM FEW012 SCT120
      TEMPO 2607/2610 2SM BR
     FM261000 22004KT P6SM BKN025
     FM261500 28009KT P6SM BKN035
     FM261800 31009G16KT P6SM SCT040
     FM270000 34004KT P6SM SCT250=



000
FTUS43 KAPX 260500
TAFTVC
TAF
KTVC 260520Z 2606/2706 20004KT P6SM SCT120
     FM260900 24004KT P6SM SCT025 BKN120
     FM261400 29007KT P6SM SCT035
     FM261800 31008G15KT P6SM SCT040
     FM270000 33003KT P6SM SKC=



000
FTUS43 KAPX 260500
TAFAPN
TAF
KAPN 260520Z 2606/2706 18004KT P6SM FEW012 SCT120
     FM261000 22004KT P6SM BKN025
     FM261500 28009KT P6SM BKN035
     FM261800 31009G16KT P6SM SCT040
     FM270000 34004KT P6SM SCT250=



000
FTUS43 KAPX 260500
TAFPLN
TAF
KPLN 260520Z 2606/2706 21003KT P6SM SCT012 SCT120
     FM260900 25004KT P6SM BKN025
     FM261400 31009KT P6SM BKN035
     FM261700 30009G16KT P6SM SCT040
     FM270000 34004KT P6SM SCT250=



000
FTUS43 KAPX 252300
TAFAPN
TAF
KAPN 252320Z 2600/2624 20005KT P6SM SCT040 BKN200
     FM260600 VRB03KT 3SM BR SCT010
     FM261300 29007KT P6SM SCT040=



000
FTUS43 KAPX 252300
TAFPLN
TAF
KPLN 252320Z 2600/2624 20005KT P6SM SCT040 BKN200
     FM260400 VRB03KT 2SM BR SCT010
     FM261300 29008KT P6SM SCT040=



000
FTUS43 KAPX 252300
TAFTVC
TAF
KTVC 252320Z 2600/2624 20004KT P6SM BKN200
     FM260800 VRB03KT 5SM BR BKN200
     FM261300 29008KT P6SM SCT040=



000
FTUS43 KAPX 251700
TAFAPN
TAF
KAPN 251729Z 2518/2618 16008KT P6SM BKN040
      TEMPO 2518/2519 3SM -TSRA BKN020CB
     FM260100 VRB03KT 6SM BR SCT040 SCT080
     FM260600 VRB03KT 3SM BR SCT015 SCT040
     FM261300 30008KT P6SM SCT030=



000
FTUS43 KAPX 251700
TAFPLN
TAF
KPLN 251729Z 2518/2618 14005KT P6SM SCT005 BKN040
     FM260000 22003KT 5SM BR BKN040
     FM260500 25003KT 2SM BR SCT015 BKN040
     FM261300 30008KT P6SM SCT030=



000
FTUS43 KAPX 251700
TAFTVC
TAF
KTVC 251729Z 2518/2618 22006KT P6SM SCT020 BKN035
     FM260100 21002KT P6SM SCT050
     FM260900 24003KT 5SM BR SCT050 SCT100
     FM261300 31007KT P6SM SCT050=



000
FTUS43 KAPX 251400 AAA
TAFPLN
TAF AMD
KPLN 251435Z 2515/2612 13004KT P6SM -SHRA SCT020 OVC035
      TEMPO 2515/2516 3SM -TSRA BKN020CB
     FM251600 14005KT P6SM BKN035
     FM260000 21003KT P6SM BKN040
     FM260800 22004KT 4SM BR BKN035=



000
FTUS43 KAPX 251300 AAA
TAFTVC
TAF AMD
KTVC 251345Z 2514/2612 15004KT 6SM -SHRA SCT020 BKN040
      TEMPO 2514/2515 3SM -TSRA BKN020CB
     FM251600 15006KT P6SM BKN035
     FM252100 17005KT P6SM VCSH BKN050
     FM260100 21003KT P6SM SCT050=



000
FTUS43 KAPX 251100
TAFAPN
TAF
KAPN 251123Z 2512/2612 VRB03KT 6SM BR SCT002
      TEMPO 2512/2513 1SM BR BKN002
     FM251430 15007KT P6SM BKN035
     FM252200 14006KT P6SM VCTS BKN040CB
     FM260200 16004KT P6SM SCT050=



000
FTUS43 KAPX 251100
TAFTVC
TAF
KTVC 251123Z 2512/2612 15004KT P6SM BKN040
     FM251500 15006KT 6SM -SHRA OVC035
     FM251700 15006KT P6SM BKN035
     FM252100 17005KT P6SM VCSH BKN050
     FM260100 21003KT P6SM SCT050=



000
FTUS43 KAPX 251100
TAFPLN
TAF
KPLN 251123Z 2512/2612 00000KT P6SM FEW002 BKN040
      TEMPO 2512/2513 5SM BR BKN002
     FM251500 13004KT 6SM -SHRA OVC035
     FM251700 14005KT P6SM BKN035
     FM260000 21003KT P6SM BKN040
     FM260800 22004KT 4SM BR BKN035=



000
FTUS43 KAPX 251000 AAB
TAFAPN
TAF AMD
KAPN 251036Z 2511/2606 VRB03KT 6SM BR SCT002
      TEMPO 2511/2513 1SM BR BKN002
     FM251400 16006KT P6SM BKN035=



000
FTUS43 KAPX 250900 AAA
TAFPLN
TAF AMD
KPLN 250936Z 2510/2606 00000KT 3SM BR SCT012
      TEMPO 2510/2512 1/2SM FG BKN012
     FM251400 15005KT P6SM BKN040
     FM260100 21004KT 4SM BR BKN035=



000
FTUS43 KAPX 250800 AAA
TAFTVC
TAF AMD
KTVC 250800Z 2508/2606 14004KT P6SM SCT025
      TEMPO 2508/2512 BKN025
     FM251400 15005KT P6SM BKN040
     FM260100 21004KT P6SM BKN035=



000
FTUS43 KAPX 250600 AAA
TAFAPN
TAF AMD
KAPN 250635Z 2507/2606 VRB03KT P6SM OVC035
      TEMPO 2507/2510 3SM BR
     FM251000 15004KT 4SM BR SCT015 BKN100
     FM251400 16006KT P6SM BKN035=



000
FTUS43 KAPX 250500
TAFAPN
TAF
KAPN 250524Z 2506/2606 VRB03KT 6SM BR SCT002
      TEMPO 2506/2510 3/4SM BR BKN002
     FM251000 15004KT 4SM BR SCT015 BKN100
     FM251400 16006KT P6SM BKN035=



000
FTUS43 KAPX 250500
TAFTVC
TAF
KTVC 250524Z 2506/2606 14004KT P6SM SCT010
      TEMPO 2506/2510 BKN015
     FM251400 15005KT P6SM BKN040
     FM260100 21004KT P6SM BKN035=



000
FTUS43 KAPX 250500
TAFPLN
TAF
KPLN 250524Z 2506/2606 14007KT P6SM SCT025
      TEMPO 2506/2510 4SM BR SCT010
     FM251400 15005KT P6SM BKN040
     FM260100 21004KT 4SM BR BKN035=



000
FTUS43 KAPX 250400 AAA
TAFTVC
TAF AMD
KTVC 250436Z 2505/2524 13005KT P6SM SCT035 BKN100
     FM250600 14003KT P6SM BKN020
     FM251000 15005KT P6SM SCT025 BKN100
     FM251400 17007KT P6SM BKN035=



000
FTUS43 KAPX 250400 AAA
TAFPLN
TAF AMD
KPLN 250429Z 2504/2524 12005KT P6SM BKN035
     FM251000 14005KT 4SM BR SCT015 BKN100
     FM251400 17006KT P6SM BKN035=



000
FTUS43 KAPX 250400 AAC
TAFAPN
TAF AMD
KAPN 250400Z 2504/2524 15004KT 4SM BR BKN005
      TEMPO 2504/2506 SCT003
     FM250600 15003KT 2SM BR BKN003
     FM251000 15004KT 4SM BR SCT015 BKN100
     FM251400 16007KT P6SM BKN035=



000
FTUS43 KAPX 250200 AAB
TAFAPN
TAF AMD
KAPN 250228Z 2502/2524 15004KT 4SM BR BKN005
     FM250600 15003KT 2SM BR BKN003
     FM251000 15004KT 4SM BR SCT015 BKN100
     FM251400 16007KT P6SM BKN035=



000
FTUS43 KAPX 250000 AAA
TAFAPN
TAF AMD
KAPN 250048Z 2501/2524 11005KT P6SM SCT025
     FM250400 13003KT 2SM BR BKN010
     FM251000 15004KT 4SM BR SCT015 BKN100
     FM251400 16007KT P6SM BKN035=



000
FTUS43 KAPX 242300
TAFAPN
TAF
KAPN 242320Z 2500/2524 11005KT P6SM SCT015 OVC025
     FM250400 13003KT 2SM BR BKN010
     FM251000 15004KT 4SM BR SCT015 BKN100
     FM251400 16007KT P6SM BKN035=



000
FTUS43 KAPX 242300
TAFTVC
TAF
KTVC 242320Z 2500/2524 13005KT P6SM SCT035 BKN100
     FM250400 14003KT P6SM BKN020
     FM251000 15005KT P6SM SCT025 BKN100
     FM251400 17007KT P6SM BKN035=



000
FTUS43 KAPX 242300
TAFPLN
TAF
KPLN 242320Z 2500/2524 12005KT P6SM BKN035
     FM250400 13003KT 2SM BR BKN012
     FM251000 14005KT 4SM BR SCT015 BKN100
     FM251400 17006KT P6SM BKN035=



000
FTUS43 KAPX 242200 AAA
TAFPLN
TAF AMD
KPLN 242210Z 2422/2518 12007KT P6SM BKN035
     FM250600 14003KT 3SM BR BKN012
     FM251200 17005KT 3SM BR SCT015 BKN100
     FM251400 19008KT P6SM BKN030=



000
FTUS43 KAPX 242200 AAB
TAFAPN
TAF AMD
KAPN 242209Z 2422/2518 13005KT P6SM SCT015 OVC025
     FM250400 17003KT P6SM BKN010
     FM251000 17004KT 3SM BR SCT015 BKN100
     FM251400 VRB03KT P6SM BKN035=



000
FTUS43 KAPX 241900 AAA
TAFAPN
TAF AMD
KAPN 241936Z 2420/2518 11008KT P6SM OVC009
     FM242300 14003KT P6SM BKN012 OVC180
     FM250400 17003KT P6SM BKN010
     FM251000 17004KT 3SM BR SCT015 BKN100
     FM251400 VRB03KT P6SM BKN035=



000
FTUS43 KAPX 241700
TAFAPN
TAF
KAPN 241737Z 2418/2518 10005KT P6SM OVC012
     FM242100 11007KT P6SM SCT018 BKN200
     FM250000 14003KT P6SM FEW020 BKN180
     FM250400 17003KT P6SM BKN015
     FM251000 17004KT 3SM BR SCT015 BKN100
     FM251400 VRB03KT P6SM BKN035=



000
FTUS43 KAPX 241700
TAFTVC
TAF
KTVC 241737Z 2418/2518 11009KT P6SM SCT028 BKN180
     FM250000 12003KT P6SM BKN150
     FM250300 17003KT P6SM BKN020
     FM251000 17004KT P6SM SCT022 BKN080
     FM251400 19007KT P6SM BKN035=



000
FTUS43 KAPX 241700
TAFPLN
TAF
KPLN 241737Z 2418/2518 12010G17KT P6SM SCT022 BKN200
     FM250000 12003KT P6SM BKN180
     FM250600 14003KT 3SM BR BKN012
     FM251200 17005KT 3SM BR SCT015 BKN100
     FM251400 19008KT P6SM BKN030=



000
FTUS43 KAPX 241400 AAA
TAFAPN
TAF AMD
KAPN 241454Z 2415/2512 10005KT P6SM OVC012
     FM242100 11007KT P6SM SCT018 BKN200
     FM250100 VRB03KT P6SM FEW040 BKN250
     FM250700 VRB03KT 4SM BR BKN200=



000
FTUS43 KAPX 241400 AAA
TAFPLN
TAF AMD
KPLN 241451Z 2415/2512 11006KT P6SM OVC006
     FM241700 12007KT P6SM BKN022 BKN200
     FM241900 10007KT P6SM SCT025 BKN200
     FM250000 12003KT P6SM BKN250
     FM250700 13003KT 3SM BR SCT005=



000
FTUS43 KAPX 241400 AAA
TAFTVC
TAF AMD
KTVC 241448Z 2415/2512 11005KT P6SM BKN014
     FM241700 11005KT P6SM SCT025 BKN200
     FM250000 VRB03KT P6SM BKN150
     FM250900 VRB03KT 6SM BR VCSH BKN035=



000
FTUS43 KAPX 241100
TAFAPN
TAF
KAPN 241139Z 2412/2512 00000KT 6SM BR OVC003
     FM241400 10005KT P6SM BKN009
     FM241800 11007KT P6SM BKN012
     FM242100 11007KT P6SM SCT018
     FM250100 VRB03KT P6SM FEW040 BKN250
     FM250700 VRB03KT 4SM BR BKN200=



000
FTUS43 KAPX 241100
TAFTVC
TAF
KTVC 241139Z 2412/2512 VRB03KT P6SM SCT009 BKN250
      TEMPO 2412/2414 BKN009
     FM241400 11005KT P6SM SCT018 BKN150
     FM241600 10005KT P6SM FEW035 BKN150
     FM250000 VRB03KT P6SM BKN150
     FM250900 VRB03KT 6SM BR VCSH BKN035=



000
FTUS43 KAPX 241100
TAFPLN
TAF
KPLN 241139Z 2412/2512 11004KT 3SM BR OVC003
      TEMPO 2412/2414 1/2SM FG
     FM241500 11006KT 6SM BR BKN009
     FM241700 10007KT P6SM SCT035
     FM250000 12003KT P6SM BKN250
     FM250700 13003KT 3SM BR SCT005=



    US Dept of Commerce
    National Oceanic and Atmospheric Administration
    National Weather Service
    1325 East West Highway
    Silver Spring, MD 20910
    Page Author: NWS Internet Services Team
Disclaimer
Information Quality
Credits
Glossary
Privacy Policy
Freedom of Information Act (FOIA)
About Us
Career Opportunities